Time;durP1;ratioP1;P1;durP2;ratioP2;P2;SDS_P1;SDS_P2;PMS_P1;PMS_P2;Temp;Humidity;BMP_temperature;BMP_pressure;BME280_temperature;BME280_humidity;BME280_pressure;Samples;Min_cycle;Max_cycle;Signal;HPM_P1;HPM_P2
2022/08/15 00:02:12;;;;;;;;;;;;;;;;;;;;;
2022/08/15 00:05:22;;;;;;;;;;;;;;;;;;;;;
2022/08/15 00:08:50;;;;;;;17.90;15.00;;;20.40;99.90;;;;;;4921468;28;20164;-81
2022/08/15 00:11:46;;;;;;;15.02;13.77;;;20.40;99.90;;;;;;4985107;28;20088;-81
2022/08/15 00:14:42;;;;;;;13.52;12.32;;;20.50;99.90;;;;;;4951856;28;20053;-80
2022/08/15 00:17:15;;;;;;;13.98;12.68;;;20.50;99.90;;;;;;4965452;28;20112;-81
2022/08/15 00:19:52;;;;;;;13.95;12.73;;;20.50;99.90;;;;;;4973334;28;20045;-81
2022/08/15 00:22:51;;;;;;;13.82;12.60;;;20.50;99.90;;;;;;5025416;28;20416;-82
2022/08/15 00:25:29;;;;;;;12.23;11.13;;;20.50;99.90;;;;;;5109368;27;20044;-81
2022/08/15 00:28:08;;;;;;;14.23;12.93;;;20.50;99.90;;;;;;5119373;27;20103;-81
2022/08/15 00:30:49;;;;;;;13.73;12.30;;;20.50;99.90;;;;;;5114121;27;20514;-81
2022/08/15 00:33:24;;;;;;;13.27;12.07;;;20.40;99.90;;;;;;5099232;27;20448;-80
2022/08/15 00:36:01;;;;;;;12.52;11.32;;;20.40;99.90;;;;;;5084231;27;20523;-81
2022/08/15 00:38:42;;;;;;;12.95;11.85;;;20.30;99.90;;;;;;5083298;27;20088;-81
2022/08/15 00:44:13;;;;;;;13.52;12.13;;;20.40;99.90;;;;;;5120322;27;20490;-80
2022/08/15 00:46:55;;;;;;;13.52;12.13;;;20.40;99.90;;;;;;5098607;27;20064;-81
2022/08/15 00:50:01;;;;;;;;;;;;;;;;;;;;;
2022/08/15 00:52:36;;;;;;;13.50;12.30;;;20.50;99.90;;;;;;5108208;27;20066;-81
2022/08/15 00:55:15;;;;;;;13.30;12.10;;;20.40;99.90;;;;;;5095905;27;20077;-81
2022/08/15 01:01:29;;;;;;;15.40;13.95;;;20.40;99.90;;;;;;5109245;27;20449;-81
2022/08/15 01:03:55;;;;;;;14.98;13.70;;;20.30;99.90;;;;;;5101397;27;20043;-81
2022/08/15 01:06:23;;;;;;;13.82;12.73;;;20.30;99.90;;;;;;5076490;28;20045;-81
2022/08/15 01:08:49;;;;;;;13.52;12.32;;;20.30;99.90;;;;;;5115994;27;20138;-81
2022/08/15 01:11:29;;;;;;;13.98;12.77;;;20.30;99.90;;;;;;5115607;27;20142;-80
2022/08/15 01:14:00;;;;;;;14.02;12.80;;;20.30;99.90;;;;;;5094898;28;20069;-81
2022/08/15 01:16:31;;;;;;;14.07;12.82;;;20.30;99.90;;;;;;5111413;27;20078;-81
2022/08/15 01:18:58;;;;;;;13.85;12.63;;;20.30;99.90;;;;;;5072178;28;20090;-80
2022/08/15 01:22:01;;;;;;;14.55;13.35;;;20.40;99.90;;;;;;5039687;28;20132;-81
2022/08/15 01:25:02;;;;;;;13.25;12.13;;;20.40;99.90;;;;;;5073889;28;20538;-80
2022/08/15 01:27:54;;;;;;;14.57;13.20;;;20.30;99.90;;;;;;5077313;28;20059;-81
2022/08/15 01:30:25;;;;;;;13.25;11.95;;;20.40;99.90;;;;;;5073331;28;20048;-81
2022/08/15 01:32:53;;;;;;;13.45;12.18;;;20.40;99.90;;;;;;5062465;28;20475;-81
2022/08/15 01:35:19;;;;;;;13.95;12.77;;;20.40;99.90;;;;;;5039293;28;20048;-80
2022/08/15 01:37:45;;;;;;;14.23;13.02;;;20.50;99.90;;;;;;5039571;28;20071;-81
2022/08/15 01:40:24;;;;;;;14.93;13.73;;;20.50;99.90;;;;;;5042981;28;20087;-81
2022/08/15 01:42:55;;;;;;;14.30;13.10;;;20.60;99.90;;;;;;5046781;28;20198;-81
2022/08/15 01:45:26;;;;;;;14.05;12.85;;;20.60;99.90;;;;;;5040217;28;20055;-80
2022/08/15 01:48:13;;;;;;;14.25;12.88;;;20.50;99.90;;;;;;5038309;28;20130;-80
2022/08/15 01:50:50;;;;;;;14.52;13.13;;;20.50;99.90;;;;;;5083589;28;20059;-80
2022/08/15 01:53:24;;;;;;;13.93;12.45;;;20.30;99.90;;;;;;5077274;28;20109;-80
2022/08/15 01:56:03;;;;;;;13.35;12.05;;;20.30;99.90;;;;;;5078914;28;20047;-80
2022/08/15 01:58:29;;;;;;;12.32;11.23;;;20.30;99.90;;;;;;5095058;28;20047;-80
2022/08/15 02:01:03;;;;;;;13.65;12.40;;;20.40;99.90;;;;;;5082313;28;20518;-80
2022/08/15 02:03:38;;;;;;;12.60;11.30;;;20.50;99.90;;;;;;5105313;28;20039;-80
2022/08/15 02:06:14;;;;;;;13.13;11.93;;;20.60;99.90;;;;;;5070030;28;20055;-80
2022/08/15 02:08:41;;;;;;;12.38;11.38;;;20.60;99.90;;;;;;5089666;28;20051;-80
2022/08/15 02:11:11;;;;;;;13.27;12.07;;;20.60;99.90;;;;;;5086819;28;20130;-80
2022/08/15 02:13:38;;;;;;;12.27;11.25;;;20.70;99.90;;;;;;5082834;28;20177;-80
2022/08/15 02:16:04;;;;;;;13.20;12.00;;;20.70;99.90;;;;;;5081179;28;20051;-81
2022/08/15 02:18:30;;;;;;;12.95;11.85;;;20.70;99.90;;;;;;5087331;28;20131;-80
2022/08/15 02:20:59;;;;;;;12.90;11.45;;;20.70;99.90;;;;;;5070016;28;20139;-80
2022/08/15 02:23:26;;;;;;;13.30;12.18;;;20.70;99.90;;;;;;5068677;28;20705;-80
2022/08/15 02:25:54;;;;;;;13.00;11.90;;;20.70;99.90;;;;;;5071038;28;20036;-80
2022/08/15 02:28:21;;;;;;;12.30;11.20;;;20.70;99.90;;;;;;5075269;28;20097;-81
2022/08/15 02:30:48;;;;;;;11.27;10.35;;;20.70;99.90;;;;;;5087198;28;20056;-80
2022/08/15 02:33:14;;;;;;;12.07;11.07;;;20.70;99.90;;;;;;5067350;28;20055;-80
2022/08/15 02:35:40;;;;;;;12.18;11.15;;;20.70;99.90;;;;;;5090972;28;20117;-80
2022/08/15 02:38:08;;;;;;;12.23;11.13;;;20.70;99.90;;;;;;5081342;28;20043;-80
2022/08/15 02:40:34;;;;;;;11.23;10.27;;;20.70;99.90;;;;;;5087513;28;20044;-80
2022/08/15 02:43:05;;;;;;;10.95;9.98;;;20.70;99.90;;;;;;5071280;28;20044;-80
2022/08/15 02:45:37;;;;;;;11.48;10.57;;;20.60;99.90;;;;;;5093362;28;20028;-80
2022/08/15 02:48:11;;;;;;;11.43;10.45;;;20.60;99.90;;;;;;5070039;28;20047;-80
2022/08/15 02:50:39;;;;;;;12.13;10.93;;;20.60;99.90;;;;;;5098337;28;20108;-80
2022/08/15 02:53:18;;;;;;;11.43;10.27;;;20.60;99.90;;;;;;5102841;28;20040;-80
2022/08/15 02:55:47;;;;;;;11.75;10.75;;;20.60;99.90;;;;;;5105061;28;20436;-80
2022/08/15 02:58:14;;;;;;;12.33;11.23;;;20.50;99.90;;;;;;5086119;28;20046;-80
2022/08/15 03:00:42;;;;;;;11.57;10.57;;;20.50;99.90;;;;;;5089638;28;20059;-81
2022/08/15 03:03:11;;;;;;;12.10;10.90;;;20.40;99.90;;;;;;5061182;28;20097;-80
2022/08/15 03:05:40;;;;;;;12.07;10.90;;;20.40;99.90;;;;;;5091893;28;20097;-80
2022/08/15 03:08:09;;;;;;;11.73;10.73;;;20.40;99.90;;;;;;5087479;28;20043;-80
2022/08/15 03:10:36;;;;;;;11.67;10.53;;;20.40;99.90;;;;;;5070344;28;20543;-80
2022/08/15 03:13:25;;;;;;;10.88;9.98;;;20.30;99.90;;;;;;5091172;28;20454;-79
2022/08/15 03:15:56;;;;;;;11.97;10.97;;;20.40;99.90;;;;;;5086799;28;20040;-80
2022/08/15 03:18:24;;;;;;;11.50;10.32;;;20.40;99.90;;;;;;5058436;28;20040;-80
2022/08/15 03:20:53;;;;;;;12.43;11.32;;;20.40;99.90;;;;;;5095835;28;20062;-80
2022/08/15 03:23:25;;;;;;;12.05;11.05;;;20.40;99.90;;;;;;5085721;28;20490;-80
2022/08/15 03:25:53;;;;;;;11.82;10.93;;;20.40;99.90;;;;;;5099975;28;20048;-80
2022/08/15 03:28:25;;;;;;;12.15;11.05;;;20.30;99.90;;;;;;5105986;28;20498;-80
2022/08/15 03:30:56;;;;;;;11.85;10.73;;;20.20;99.90;;;;;;5098354;28;20044;-80
2022/08/15 03:33:23;;;;;;;13.07;11.77;;;20.20;99.90;;;;;;5113991;27;20097;-80
2022/08/15 03:35:50;;;;;;;12.75;11.70;;;20.10;99.90;;;;;;5094701;27;20043;-79
2022/08/15 03:38:16;;;;;;;12.65;11.57;;;20.00;99.90;;;;;;5105746;27;20540;-80
2022/08/15 03:40:45;;;;;;;14.10;12.85;;;19.90;99.90;;;;;;5087280;27;20048;-80
2022/08/15 03:43:21;;;;;;;13.03;11.83;;;19.80;99.90;;;;;;5123583;27;20085;-80
2022/08/15 03:45:50;;;;;;;12.32;11.23;;;19.80;99.90;;;;;;5103966;27;20043;-80
2022/08/15 03:48:18;;;;;;;13.05;12.05;;;19.80;99.90;;;;;;5119472;27;20274;-79
2022/08/15 03:50:45;;;;;;;12.43;11.35;;;19.70;99.90;;;;;;5121843;27;20046;-80
2022/08/15 03:53:12;;;;;;;14.07;12.75;;;19.70;99.90;;;;;;5122549;27;20039;-80
2022/08/15 03:55:40;;;;;;;12.70;11.60;;;19.70;99.90;;;;;;5102458;27;20049;-79
2022/08/15 03:58:09;;;;;;;12.98;11.90;;;19.80;99.90;;;;;;5115327;27;20564;-80
2022/08/15 04:00:43;;;;;;;13.27;11.98;;;19.70;99.90;;;;;;5088701;27;20540;-80
2022/08/15 04:03:13;;;;;;;13.65;12.35;;;19.70;99.90;;;;;;5119572;27;20043;-79
2022/08/15 04:05:40;;;;;;;12.52;11.43;;;19.60;99.90;;;;;;5100603;28;20060;-80
2022/08/15 04:08:11;;;;;;;14.60;13.30;;;19.50;99.90;;;;;;5096334;28;20567;-79
2022/08/15 04:10:38;;;;;;;12.27;11.23;;;19.50;99.90;;;;;;5097677;27;20054;-80
2022/08/15 04:13:07;;;;;;;13.15;11.93;;;19.50;99.90;;;;;;5102368;27;20054;-79
2022/08/15 04:15:34;;;;;;;12.15;10.98;;;19.40;99.90;;;;;;5100799;27;21415;-79
2022/08/15 04:18:03;;;;;;;13.77;12.68;;;19.40;99.90;;;;;;5115121;27;20039;-80
2022/08/15 04:20:29;;;;;;;13.43;12.23;;;19.40;99.90;;;;;;5120310;27;20035;-80
2022/08/15 04:22:54;;;;;;;13.60;12.40;;;19.40;99.90;;;;;;5101708;27;20051;-79
2022/08/15 04:25:27;;;;;;;13.25;12.05;;;19.40;99.90;;;;;;5106304;27;20039;-79
2022/08/15 04:27:56;;;;;;;13.35;12.25;;;19.40;99.90;;;;;;5110068;27;20043;-79
2022/08/15 04:30:25;;;;;;;13.82;12.68;;;19.40;99.90;;;;;;5098301;28;20449;-80
2022/08/15 04:32:54;;;;;;;14.10;12.80;;;19.40;99.90;;;;;;5119017;27;20047;-80
2022/08/15 04:35:20;;;;;;;14.40;13.25;;;19.30;99.90;;;;;;5098851;28;20106;-80
2022/08/15 04:37:46;;;;;;;14.40;13.02;;;19.30;99.90;;;;;;5106075;28;20044;-80
2022/08/15 04:40:14;;;;;;;14.45;12.95;;;19.30;99.90;;;;;;5088415;28;20483;-80
2022/08/15 04:42:55;;;;;;;14.15;12.95;;;19.30;99.90;;;;;;5088464;27;20715;-80
2022/08/15 04:45:25;;;;;;;13.60;12.20;;;19.40;99.90;;;;;;5103790;27;20042;-80
2022/08/15 04:47:51;;;;;;;15.20;13.80;;;19.40;99.90;;;;;;5118522;27;20047;-78
2022/08/15 04:50:18;;;;;;;14.45;13.25;;;19.50;99.90;;;;;;5106273;28;20039;-78
2022/08/15 04:52:56;;;;;;;14.43;13.07;;;19.50;99.90;;;;;;5099916;27;20059;-79
2022/08/15 04:55:24;;;;;;;14.38;13.00;;;19.60;99.90;;;;;;5116239;27;20074;-80
2022/08/15 04:57:51;;;;;;;14.10;12.88;;;19.60;99.90;;;;;;5103476;27;20054;-80
2022/08/15 05:00:21;;;;;;;15.85;14.35;;;19.60;99.90;;;;;;5098235;27;20035;-80
2022/08/15 05:03:01;;;;;;;15.27;14.07;;;19.60;99.90;;;;;;5113843;27;20518;-79
2022/08/15 05:05:27;;;;;;;14.82;13.50;;;19.70;99.90;;;;;;5109589;27;20655;-79
2022/08/15 05:07:53;;;;;;;16.00;14.60;;;19.60;99.90;;;;;;5108996;27;20059;-80
2022/08/15 05:10:19;;;;;;;16.30;14.90;;;19.60;99.90;;;;;;5102860;27;20043;-80
2022/08/15 05:12:44;;;;;;;15.38;14.07;;;19.60;99.90;;;;;;5106090;28;20113;-80
2022/08/15 05:15:13;;;;;;;15.98;14.57;;;19.60;99.90;;;;;;5100604;27;20526;-79
2022/08/15 05:17:39;;;;;;;15.30;14.00;;;19.60;99.90;;;;;;5093123;27;20055;-79
2022/08/15 05:20:08;;;;;;;14.23;13.05;;;19.70;99.90;;;;;;5069223;28;20513;-79
2022/08/15 05:22:34;;;;;;;15.27;13.82;;;19.70;99.90;;;;;;5095761;27;20329;-79
2022/08/15 05:25:00;;;;;;;15.55;14.25;;;19.70;99.90;;;;;;5098160;28;20567;-79
2022/08/15 05:27:25;;;;;;;15.73;14.43;;;19.70;99.90;;;;;;5084831;27;20066;-79
2022/08/15 05:29:51;;;;;;;16.05;14.50;;;19.80;99.90;;;;;;5101708;27;20055;-79
2022/08/15 05:32:19;;;;;;;15.10;13.90;;;19.80;99.90;;;;;;5087169;27;20043;-79
2022/08/15 05:34:47;;;;;;;14.05;12.88;;;19.90;99.90;;;;;;5117356;27;20035;-79
2022/08/15 05:37:18;;;;;;;14.30;13.05;;;19.90;99.90;;;;;;5117490;27;20039;-80
2022/08/15 05:39:44;;;;;;;14.98;13.77;;;19.90;99.90;;;;;;5072677;27;20146;-79
2022/08/15 05:42:38;;;;;;;14.60;13.35;;;20.00;99.90;;;;;;5093945;28;20032;-79
2022/08/15 05:45:17;;;;;;;14.73;13.35;;;20.00;99.90;;;;;;5106037;27;20135;-79
2022/08/15 05:47:58;;;;;;;15.38;13.98;;;20.10;99.90;;;;;;5118327;27;20501;-79
2022/08/15 05:50:32;;;;;;;13.07;12.07;;;20.10;99.90;;;;;;5110215;27;20565;-79
2022/08/15 05:53:16;;;;;;;13.77;12.57;;;20.20;99.90;;;;;;5101739;27;20051;-79
2022/08/15 05:56:10;;;;;;;14.93;13.63;;;20.20;99.90;;;;;;5101299;27;20127;-80
2022/08/15 05:59:01;;;;;;;14.75;13.40;;;20.30;99.90;;;;;;5119063;27;20043;-79
2022/08/15 06:01:37;;;;;;;14.77;13.43;;;20.40;99.90;;;;;;5115639;27;20055;-80
2022/08/15 06:04:22;;;;;;;15.13;13.65;;;20.60;99.90;;;;;;5100716;28;20031;-80
2022/08/15 06:06:50;;;;;;;16.73;15.18;;;20.60;99.90;;;;;;5121397;27;20035;-79
2022/08/15 06:09:36;;;;;;;15.48;14.18;;;20.70;99.90;;;;;;5099355;28;20032;-80
2022/08/15 06:12:09;;;;;;;16.55;15.25;;;20.80;99.90;;;;;;5096508;28;20118;-79
2022/08/15 06:14:40;;;;;;;15.85;14.48;;;20.90;99.90;;;;;;5100215;28;20074;-79
2022/08/15 06:17:20;;;;;;;15.55;14.15;;;20.90;99.90;;;;;;5114965;28;20046;-79
2022/08/15 06:19:49;;;;;;;14.48;13.23;;;21.00;99.90;;;;;;5102929;28;20051;-80
2022/08/15 06:22:47;;;;;;;15.05;13.73;;;21.00;99.90;;;;;;5099203;28;21456;-79
2022/08/15 06:25:49;;;;;;;16.08;14.38;;;21.10;99.90;;;;;;5099629;28;20478;-80
2022/08/15 06:28:24;;;;;;;15.82;14.35;;;21.20;99.90;;;;;;5100396;28;20036;-79
2022/08/15 06:31:15;;;;;;;14.57;13.32;;;21.20;99.90;;;;;;5111704;27;20047;-78
2022/08/15 06:33:52;;;;;;;14.60;13.40;;;21.30;99.90;;;;;;5092987;28;20048;-78
2022/08/15 06:36:30;;;;;;;14.35;12.95;;;21.30;99.90;;;;;;5096337;28;20396;-78
2022/08/15 06:39:11;;;;;;;14.50;13.23;;;21.30;99.90;;;;;;5100505;28;20046;-79
2022/08/15 06:41:52;;;;;;;14.00;12.70;;;21.30;99.90;;;;;;5123586;28;20051;-78
2022/08/15 06:44:19;;;;;;;14.90;13.75;;;21.30;99.90;;;;;;5114970;28;20512;-81
2022/08/15 06:46:46;;;;;;;15.60;14.18;;;21.30;99.90;;;;;;5117421;28;20039;-80
2022/08/15 06:49:14;;;;;;;16.30;15.00;;;21.40;99.90;;;;;;5076398;28;20042;-80
2022/08/15 06:51:41;;;;;;;15.88;14.50;;;21.40;99.90;;;;;;5099230;28;20054;-80
2022/08/15 06:54:14;;;;;;;15.32;14.13;;;21.40;99.90;;;;;;5107266;28;20066;-82
2022/08/15 06:56:59;;;;;;;16.02;14.70;;;21.40;99.90;;;;;;5096746;28;20048;-80
2022/08/15 06:59:25;;;;;;;14.65;13.43;;;21.50;99.90;;;;;;5111851;28;20043;-80
2022/08/15 07:02:18;;;;;;;16.27;14.88;;;21.60;99.90;;;;;;5109574;28;20054;-77
2022/08/15 07:04:54;;;;;;;15.07;13.77;;;21.60;99.90;;;;;;5109994;28;20075;-77
2022/08/15 07:07:37;;;;;;;16.73;15.20;;;21.70;99.90;;;;;;5095882;28;20175;-78
2022/08/15 07:10:18;;;;;;;17.55;15.95;;;21.80;99.90;;;;;;5112413;28;20128;-79
2022/08/15 07:12:59;;;;;;;17.38;15.88;;;21.90;99.90;;;;;;5094509;28;20157;-78
2022/08/15 07:16:04;;;;;;;17.42;15.90;;;22.00;99.90;;;;;;5089844;28;20036;-79
2022/08/15 07:18:46;;;;;;;16.45;14.95;;;22.10;99.90;;;;;;5094659;28;20051;-78
2022/08/15 07:21:14;;;;;;;15.65;14.25;;;22.30;99.90;;;;;;5110279;27;20699;-78
2022/08/15 07:24:03;;;;;;;14.00;12.73;;;22.50;99.90;;;;;;5092987;27;20122;-79
2022/08/15 07:26:31;;;;;;;15.32;13.95;;;22.70;99.90;;;;;;5098254;27;20119;-75
2022/08/15 07:28:59;;;;;;;13.93;12.63;;;22.80;99.90;;;;;;5114662;27;20366;-75
2022/08/15 07:31:33;;;;;;;13.70;12.52;;;22.90;99.90;;;;;;5096676;28;21502;-75
2022/08/15 07:34:22;;;;;;;14.00;12.70;;;23.00;99.90;;;;;;5098004;27;20047;-78
2022/08/15 07:36:56;;;;;;;;;;;23.10;99.90;;;;;;5092537;27;20110;-78
2022/08/15 07:39:26;;;;;;;14.35;12.57;;;23.10;99.90;;;;;;5096878;27;20030;-78
2022/08/15 07:41:52;;;;;;;;;;;23.20;99.90;;;;;;5099157;28;20079;-82
2022/08/15 07:44:30;;;;;;;13.82;12.68;;;23.20;99.90;;;;;;5098592;27;19964;-78
2022/08/15 07:47:11;;;;;;;14.25;12.98;;;23.20;99.90;;;;;;5109565;27;20039;-81
2022/08/15 07:49:38;;;;;;;13.90;12.70;;;23.30;99.90;;;;;;5119835;27;20075;-82
2022/08/15 07:52:16;;;;;;;13.13;12.02;;;23.30;99.90;;;;;;5113855;27;20048;-81
2022/08/15 07:54:42;;;;;;;14.98;13.60;;;23.30;99.90;;;;;;5114421;27;20054;-81
2022/08/15 07:57:18;;;;;;;14.45;13.25;;;23.40;99.90;;;;;;5118661;27;20035;-81
2022/08/15 08:00:30;;;;;;;14.77;13.32;;;23.40;99.90;;;;;;5115391;27;20106;-82
2022/08/15 08:03:15;;;;;;;14.05;12.88;;;23.50;99.90;;;;;;5098808;27;20056;-81
2022/08/15 08:05:54;;;;;;;14.80;13.40;;;23.50;99.90;;;;;;5111294;27;20107;-81
2022/08/15 08:08:23;;;;;;;14.50;13.15;;;23.60;99.90;;;;;;5096750;27;20047;-82
2022/08/15 08:10:55;;;;;;;14.00;12.80;;;23.60;99.90;;;;;;5109750;27;20158;-82
2022/08/15 08:13:56;;;;;;;13.38;12.18;;;23.60;99.90;;;;;;5098716;27;20051;-82
2022/08/15 08:16:29;;;;;;;13.23;12.00;;;23.70;99.90;;;;;;5044486;28;20070;-82
2022/08/15 08:19:02;;;;;;;14.20;12.80;;;23.70;99.90;;;;;;5091819;28;20572;-83
2022/08/15 08:21:51;;;;;;;15.05;13.73;;;23.70;99.90;;;;;;5113265;27;20055;-82
2022/08/15 08:24:37;;;;;;;13.68;12.32;;;23.80;99.90;;;;;;5109967;27;20039;-82
2022/08/15 08:27:34;;;;;;;12.90;11.70;;;23.80;99.90;;;;;;5112188;27;21033;-82
2022/08/15 08:30:06;;;;;;;14.85;12.43;;;23.80;99.90;;;;;;5086598;27;20057;-81
2022/08/15 08:32:59;;;;;;;13.57;12.38;;;23.80;99.90;;;;;;5109803;27;20430;-82
2022/08/15 08:35:39;;;;;;;13.95;12.65;;;23.80;99.90;;;;;;5130655;27;20802;-82
2022/08/15 08:38:38;;;;;;;14.15;12.88;;;23.80;99.90;;;;;;5101888;27;20055;-82
2022/08/15 08:41:40;;;;;;;13.45;12.10;;;23.80;99.90;;;;;;5098868;27;20139;-82
2022/08/15 08:44:23;;;;;;;14.63;13.32;;;23.90;99.90;;;;;;5098506;27;20057;-82
2022/08/15 08:47:01;;;;;;;14.45;12.98;;;24.00;99.90;;;;;;5107144;27;20544;-83
2022/08/15 08:49:30;;;;;;;16.00;14.27;;;24.10;99.90;;;;;;5099057;27;20047;-81
2022/08/15 08:52:34;;;;;;;15.80;14.27;;;24.30;99.90;;;;;;5111798;27;20066;-82
2022/08/15 08:55:16;;;;;;;13.80;12.40;;;24.50;99.90;;;;;;5092947;27;20392;-83
2022/08/15 08:57:48;;;;;;;15.32;14.02;;;24.80;99.90;;;;;;5109488;27;20055;-81
2022/08/15 09:00:20;;;;;;;14.35;13.02;;;25.10;99.90;;;;;;5099484;27;20565;-83
2022/08/15 09:02:54;;;;;;;15.38;13.98;;;25.30;99.90;;;;;;5114462;27;20055;-81
2022/08/15 09:05:23;;;;;;;15.85;14.30;;;25.50;99.90;;;;;;5088888;28;20057;-84
2022/08/15 09:07:54;;;;;;;15.48;13.93;;;25.70;99.90;;;;;;5101095;27;20047;-84
2022/08/15 09:10:31;;;;;;;15.27;13.85;;;25.80;99.90;;;;;;5117876;27;20564;-84
2022/08/15 09:15:48;;;;;;;13.45;12.25;;;26.00;99.90;;;;;;5129726;27;20122;-84
2022/08/15 09:18:19;;;;;;;16.25;14.85;;;25.90;99.90;;;;;;5109673;27;20046;-82
2022/08/15 09:20:46;;;;;;;15.18;13.65;;;25.80;99.90;;;;;;5096231;27;20430;-83
2022/08/15 09:23:13;;;;;;;14.20;12.63;;;25.80;99.90;;;;;;5114283;27;20082;-80
2022/08/15 09:25:51;;;;;;;15.65;14.27;;;25.80;99.90;;;;;;5083532;28;20074;-84
2022/08/15 09:28:25;;;;;;;15.13;13.75;;;26.00;99.90;;;;;;5101157;27;20055;-84
2022/08/15 09:30:52;;;;;;;19.60;15.52;;;26.20;99.90;;;;;;5102800;27;20192;-83
2022/08/15 09:33:47;;;;;;;15.15;13.65;;;26.40;99.90;;;;;;5102466;27;20098;-83
2022/08/15 09:36:40;;;;;;;15.07;13.73;;;26.60;99.90;;;;;;5099771;27;20529;-82
2022/08/15 09:39:17;;;;;;;13.75;12.45;;;26.90;99.30;;;;;;5099184;27;20135;-83
2022/08/15 09:42:02;;;;;;;14.98;13.50;;;27.00;98.40;;;;;;5093348;27;20051;-83
2022/08/15 09:44:44;;;;;;;14.65;12.73;;;27.20;97.20;;;;;;5100550;27;20038;-85
2022/08/15 09:47:22;;;;;;;14.07;12.77;;;27.30;95.40;;;;;;5094049;27;20075;-83
2022/08/15 09:49:57;;;;;;;13.55;12.35;;;27.30;95.30;;;;;;5111971;27;20247;-83
2022/08/15 09:52:26;;;;;;;14.38;13.05;;;27.20;95.60;;;;;;5092354;27;20054;-83
2022/08/15 09:54:56;;;;;;;15.25;13.85;;;27.10;96.00;;;;;;5110095;27;20036;-83
2022/08/15 09:57:28;;;;;;;15.15;13.63;;;27.00;96.40;;;;;;5091701;27;20082;-82
2022/08/15 10:00:06;;;;;;;15.93;14.02;;;26.90;97.50;;;;;;5111920;28;20043;-82
2022/08/15 10:02:33;;;;;;;16.55;14.95;;;26.80;98.10;;;;;;5094611;27;20061;-83
2022/08/15 10:05:00;;;;;;;17.90;16.05;;;26.60;98.30;;;;;;5101518;27;20039;-82
2022/08/15 10:07:29;;;;;;;18.98;17.23;;;26.50;98.60;;;;;;5090919;27;20382;-81
2022/08/15 10:09:59;;;;;;;18.50;16.70;;;26.30;98.70;;;;;;5098739;28;20040;-81
2022/08/15 10:12:25;;;;;;;19.65;17.80;;;26.30;99.40;;;;;;5097308;28;20078;-80
2022/08/15 10:14:54;;;;;;;20.13;17.88;;;26.20;99.80;;;;;;5094804;28;20481;-79
2022/08/15 10:17:35;;;;;;;20.45;18.45;;;26.00;99.40;;;;;;5107957;28;20093;-82
2022/08/15 10:20:16;;;;;;;20.85;18.80;;;26.00;99.00;;;;;;5098207;28;20040;-82
2022/08/15 10:22:51;;;;;;;19.13;17.30;;;25.90;99.70;;;;;;5097397;28;20051;-82
2022/08/15 10:25:22;;;;;;;20.83;18.60;;;25.80;99.80;;;;;;5099253;28;20042;-81
2022/08/15 10:28:13;;;;;;;21.15;19.05;;;25.70;99.90;;;;;;5112782;28;20047;-82
2022/08/15 10:30:41;;;;;;;21.60;19.50;;;25.60;99.90;;;;;;5099267;28;20047;-81
2022/08/15 10:33:28;;;;;;;18.75;17.00;;;25.50;99.90;;;;;;5103679;28;20066;-82
2022/08/15 10:36:06;;;;;;;19.70;17.83;;;25.50;99.90;;;;;;5099733;28;20040;-82
2022/08/15 10:38:32;;;;;;;20.27;18.33;;;25.50;99.90;;;;;;5096133;28;20100;-81
2022/08/15 10:41:26;;;;;;;19.30;17.40;;;25.50;99.90;;;;;;5114931;28;20043;-81
2022/08/15 10:44:36;;;;;;;21.17;19.17;;;25.50;99.90;;;;;;5106415;27;20050;-81
2022/08/15 10:47:23;;;;;;;21.35;19.13;;;25.50;99.90;;;;;;5108574;28;20138;-81
2022/08/15 10:50:19;;;;;;;21.27;17.77;;;25.50;99.90;;;;;;5112080;28;20397;-82
2022/08/15 10:53:07;;;;;;;20.58;17.55;;;25.50;99.90;;;;;;5093660;28;20537;-81
2022/08/15 10:55:36;;;;;;;23.15;18.38;;;25.40;99.90;;;;;;5096294;27;20047;-81
2022/08/15 10:58:13;;;;;;;23.08;20.48;;;25.40;99.90;;;;;;5104206;27;20500;-83
2022/08/15 11:01:06;;;;;;;19.23;17.33;;;25.40;99.90;;;;;;5104447;27;20055;-83
2022/08/15 11:03:55;;;;;;;24.20;21.73;;;25.30;99.90;;;;;;5102201;28;20050;-83
2022/08/15 11:06:27;;;;;;;25.10;22.60;;;25.20;99.90;;;;;;5089974;27;20131;-83
2022/08/15 11:09:06;;;;;;;25.08;22.58;;;25.00;99.90;;;;;;5082502;28;20054;-83
2022/08/15 11:11:37;;;;;;;24.77;22.70;;;24.90;99.90;;;;;;5097286;27;20047;-83
2022/08/15 11:14:28;;;;;;;23.50;21.40;;;24.80;99.90;;;;;;5097218;27;20049;-82
2022/08/15 11:16:55;;;;;;;24.23;21.92;;;24.70;99.90;;;;;;5112945;27;20097;-83
2022/08/15 11:19:29;;;;;;;23.40;21.50;;;24.60;99.90;;;;;;5084682;27;20050;-82
2022/08/15 11:22:01;;;;;;;22.80;20.90;;;24.60;99.90;;;;;;5122999;27;20036;-82
2022/08/15 11:24:43;;;;;;;21.35;19.58;;;24.70;99.90;;;;;;5109240;27;20047;-83
2022/08/15 11:27:19;;;;;;;20.83;18.88;;;24.80;99.90;;;;;;5095058;27;20462;-82
2022/08/15 11:29:48;;;;;;;18.92;17.42;;;24.80;99.90;;;;;;5098652;27;20378;-82
2022/08/15 11:32:31;;;;;;;20.63;18.60;;;24.80;99.90;;;;;;5117992;27;20050;-81
2022/08/15 11:34:59;;;;;;;19.70;18.00;;;24.90;99.90;;;;;;5126598;27;20476;-81
2022/08/15 11:37:53;;;;;;;21.25;19.38;;;24.90;99.90;;;;;;5096693;27;20749;-81
2022/08/15 11:40:42;;;;;;;19.75;18.02;;;24.90;99.90;;;;;;5103492;27;20464;-81
2022/08/15 11:43:15;;;;;;;19.52;17.35;;;24.90;99.90;;;;;;5102797;27;20069;-81
2022/08/15 11:45:48;;;;;;;20.60;18.90;;;24.90;99.90;;;;;;5123811;27;20117;-81
2022/08/15 11:48:21;;;;;;;21.05;19.15;;;25.00;99.90;;;;;;5119983;27;20134;-81
2022/08/15 11:51:03;;;;;;;22.55;20.50;;;25.10;99.90;;;;;;5105908;27;20039;-82
2022/08/15 11:53:35;;;;;;;23.02;21.00;;;25.20;99.90;;;;;;5107955;27;20051;-81
2022/08/15 11:56:01;;;;;;;21.40;19.60;;;25.20;99.90;;;;;;5105379;27;20515;-81
2022/08/15 11:58:44;;;;;;;20.73;18.95;;;25.20;99.90;;;;;;5113061;27;20036;-80
2022/08/15 12:01:28;;;;;;;20.60;18.60;;;25.30;99.90;;;;;;5119185;27;20043;-81
2022/08/15 12:04:12;;;;;;;17.65;15.95;;;25.50;99.90;;;;;;5117859;27;20571;-81
2022/08/15 12:06:41;;;;;;;18.02;16.52;;;25.60;99.90;;;;;;5099975;27;20062;-82
2022/08/15 12:09:14;;;;;;;18.58;16.90;;;25.80;99.90;;;;;;5087785;27;20073;-81
2022/08/15 12:11:51;;;;;;;15.10;13.73;;;25.80;99.90;;;;;;5123377;27;20112;-82
2022/08/15 12:14:23;;;;;;;10.50;9.60;;;25.90;99.90;;;;;;5103267;27;20095;-82
2022/08/15 12:16:53;;;;;;;10.75;9.73;;;26.00;99.90;;;;;;5123929;27;20051;-81
2022/08/15 12:19:41;;;;;;;11.38;10.20;;;26.00;99.90;;;;;;5108681;27;20042;-80
2022/08/15 12:22:30;;;;;;;16.05;14.65;;;26.00;99.90;;;;;;5105324;27;20299;-80
2022/08/15 12:24:57;;;;;;;17.33;15.75;;;26.00;99.90;;;;;;5098728;27;20059;-80
2022/08/15 12:27:23;;;;;;;19.17;17.17;;;26.10;99.90;;;;;;5087303;27;20039;-80
2022/08/15 12:29:49;;;;;;;18.48;16.60;;;26.20;99.90;;;;;;5090677;27;20558;-80
2022/08/15 12:32:16;;;;;;;23.15;20.80;;;26.20;99.90;;;;;;5102263;27;20059;-81
2022/08/15 12:34:46;;;;;;;22.67;20.60;;;26.30;99.90;;;;;;5102367;27;20489;-80
2022/08/15 12:37:16;;;;;;;;;;;26.30;99.90;;;;;;5125174;27;20123;-81
2022/08/15 12:39:48;;;;;;;22.70;20.75;;;26.40;99.90;;;;;;5106896;27;19934;-82
2022/08/15 12:42:20;;;;;;;25.25;23.13;;;26.40;99.90;;;;;;5114425;27;20096;-82
2022/08/15 12:44:48;;;;;;;23.58;21.23;;;26.50;99.90;;;;;;5104188;27;20073;-83
2022/08/15 12:47:15;;;;;;;23.65;21.63;;;26.60;99.90;;;;;;5103060;27;20055;-81
2022/08/15 12:49:42;;;;;;;24.48;22.25;;;26.50;99.90;;;;;;5105055;27;20057;-82
2022/08/15 12:52:11;;;;;;;23.27;21.08;;;26.50;99.90;;;;;;5102533;27;20492;-84
2022/08/15 12:54:37;;;;;;;24.08;21.88;;;26.50;99.90;;;;;;5112894;27;20536;-82
2022/08/15 12:57:03;;;;;;;25.48;23.00;;;26.50;99.90;;;;;;5084582;27;20078;-81
2022/08/15 12:59:29;;;;;;;23.42;21.02;;;26.50;99.90;;;;;;5086193;27;20118;-81
2022/08/15 13:02:00;;;;;;;21.77;19.58;;;26.50;99.90;;;;;;5091465;27;20046;-81
2022/08/15 13:04:26;;;;;;;20.85;18.75;;;26.40;99.90;;;;;;5122438;27;20735;-81
2022/08/15 13:06:56;;;;;;;17.77;16.27;;;26.40;99.90;;;;;;5096360;27;20122;-80
2022/08/15 13:09:25;;;;;;;16.83;15.10;;;26.30;99.90;;;;;;5106599;27;20028;-80
2022/08/15 13:11:51;;;;;;;18.75;16.08;;;26.30;99.90;;;;;;5088422;27;20038;-80
2022/08/15 13:14:18;;;;;;;18.85;17.15;;;26.30;99.90;;;;;;5095277;27;20049;-81
2022/08/15 13:16:48;;;;;;;17.20;15.70;;;26.30;99.90;;;;;;5105369;27;20043;-82
2022/08/15 13:23:34;;;;;;;18.98;17.15;;;26.20;99.90;;;;;;5094343;27;20118;-82
2022/08/15 13:25:02;;;;;;;18.55;16.90;;;26.10;99.90;;;;;;5093775;27;20497;-80